Boncarbo, Colorado
Current Conditions -  °F | °C
As of 7:54 AM on Thursday 18 Dec 2014 (Local Time) from KTAD Reporting Station
Clear Clear  
Wind Chill: -9°   Ceiling: Unl
Heat Index: -3°   Visibility: 10mi
Dew Point: -6°   Wind: 10mph
Humidity: 81%   Direction: 260°W
Pressure: 30.04"   Gusts: NA
Location:  37.22°N, 104.7°W
Report Text: KTAD 181454Z AUTO 26009KT 10SM CLR M03/M06 A3004 RMK AO2 SLP198 T10331061 53011
Loading
Personal Weather Stations






























Interactive Weather Map New forecast layout! Learn more

10-Day Weather Forecast

Advertisements
Track Severe Weather on mobile